Time,TemperatureF,DewpointF,PressureIn,WindDirection,WindDirectionDegrees,WindSpeedMPH,WindSpeedGustMPH,Humidity,HourlyPrecipIn,Conditions,Clouds,dailyrainin,SoftwareType,DateUTC
2013-03-19 00:11:00,69.9,69.0,29.91,SW,233,0.0,2.0,97,0.00,,,0.00,weatherlink.com 1.10,2013-03-19 05:11:00,
2013-03-19 00:28:00,68.6,68.0,29.91,NNW,339,2.0,6.0,97,0.00,,,0.00,weatherlink.com 1.10,2013-03-19 05:28:00,
2013-03-19 00:41:00,68.2,68.0,29.91,NNW,335,0.0,4.0,98,0.00,,,0.00,weatherlink.com 1.10,2013-03-19 05:41:00,
2013-03-19 00:56:00,68.4,68.0,29.90,NNW,335,0.0,0.0,98,0.00,,,0.00,weatherlink.com 1.10,2013-03-19 05:56:00,
2013-03-19 01:11:00,68.6,68.0,29.90,ENE,73,1.0,4.0,98,0.00,,,0.00,weatherlink.com 1.10,2013-03-19 06:11:00,
2013-03-19 01:26:00,68.1,68.0,29.90,ESE,103,2.0,3.0,98,0.00,,,0.00,weatherlink.com 1.10,2013-03-19 06:26:00,
2013-03-19 01:41:00,67.7,67.0,29.90,NE,53,3.0,6.0,98,0.00,,,0.00,weatherlink.com 1.10,2013-03-19 06:41:00,
2013-03-19 01:57:00,65.2,64.0,29.92,NE,41,2.0,13.0,97,0.00,,,0.00,weatherlink.com 1.10,2013-03-19 06:57:00,
2013-03-19 02:11:00,64.8,64.0,29.91,NNE,16,0.0,3.0,97,0.00,,,0.00,weatherlink.com 1.10,2013-03-19 07:11:00,
2013-03-19 02:26:00,64.6,64.0,29.91,East,85,0.0,3.0,97,0.00,,,0.00,weatherlink.com 1.10,2013-03-19 07:26:00,
2013-03-19 02:42:00,64.1,63.0,29.90,SE,138,1.0,3.0,96,0.00,,,0.00,weatherlink.com 1.10,2013-03-19 07:42:00,
2013-03-19 02:57:00,63.7,63.0,29.91,NNE,30,6.0,7.0,97,0.00,,,0.00,weatherlink.com 1.10,2013-03-19 07:57:00,
2013-03-19 03:12:00,63.6,63.0,29.91,ESE,117,1.0,5.0,96,0.00,,,0.00,weatherlink.com 1.10,2013-03-19 08:12:00,
2013-03-19 03:27:00,63.3,62.0,29.92,North,10,5.0,5.0,96,0.00,,,0.00,weatherlink.com 1.10,2013-03-19 08:27:00,
2013-03-19 03:42:00,63.0,62.0,29.93,NNE,21,4.0,10.0,95,0.00,,,0.00,weatherlink.com 1.10,2013-03-19 08:42:00,
2013-03-19 03:57:00,63.0,61.0,29.93,NE,52,1.0,8.0,94,0.00,,,0.00,weatherlink.com 1.10,2013-03-19 08:57:00,
2013-03-19 04:12:00,62.3,61.0,29.93,NNE,18,2.0,5.0,94,0.00,,,0.00,weatherlink.com 1.10,2013-03-19 09:12:00,
2013-03-19 04:27:00,62.1,60.0,29.95,ENE,76,0.0,8.0,94,0.00,,,0.00,weatherlink.com 1.10,2013-03-19 09:27:00,
2013-03-19 04:42:00,61.6,60.0,29.95,ENE,63,4.0,6.0,94,0.00,,,0.00,weatherlink.com 1.10,2013-03-19 09:42:00,
2013-03-19 04:57:00,61.3,59.0,29.96,NNE,16,8.0,9.0,93,0.00,,,0.00,weatherlink.com 1.10,2013-03-19 09:57:00,
2013-03-19 05:12:00,61.2,59.0,29.97,North,352,5.0,9.0,93,0.00,,,0.00,weatherlink.com 1.10,2013-03-19 10:12:00,
2013-03-19 05:27:00,61.1,59.0,29.97,NNE,20,10.0,13.0,93,0.00,,,0.00,weatherlink.com 1.10,2013-03-19 10:27:00,
2013-03-19 05:42:00,61.2,59.0,29.98,NNE,27,4.0,10.0,92,0.00,,,0.00,weatherlink.com 1.10,2013-03-19 10:42:00,
2013-03-19 05:57:00,61.1,59.0,29.98,NNE,16,11.0,11.0,93,0.00,,,0.00,weatherlink.com 1.10,2013-03-19 10:57:00,
2013-03-19 06:12:00,60.9,59.0,29.99,NNE,23,9.0,13.0,93,0.00,,,0.00,weatherlink.com 1.10,2013-03-19 11:12:00,
2013-03-19 06:27:00,60.8,59.0,30.00,North,5,6.0,14.0,92,0.00,,,0.00,weatherlink.com 1.10,2013-03-19 11:27:00,
2013-03-19 06:42:00,60.5,58.0,30.00,East,88,1.0,10.0,92,0.00,,,0.00,weatherlink.com 1.10,2013-03-19 11:42:00,
2013-03-19 06:57:00,60.4,58.0,30.01,SE,131,1.0,4.0,93,0.00,,,0.00,weatherlink.com 1.10,2013-03-19 11:57:00,
2013-03-19 07:12:00,60.4,58.0,30.01,ESE,112,2.0,10.0,93,0.00,,,0.00,weatherlink.com 1.10,2013-03-19 12:12:00,
2013-03-19 07:27:00,60.2,58.0,30.02,ESE,121,0.0,6.0,93,0.00,,,0.00,weatherlink.com 1.10,2013-03-19 12:27:00,
2013-03-19 07:42:00,60.3,58.0,30.02,ESE,115,3.0,9.0,93,0.00,,,0.00,weatherlink.com 1.10,2013-03-19 12:42:00,
2013-03-19 07:57:00,60.3,58.0,30.04,NE,51,2.0,8.0,92,0.00,,,0.00,weatherlink.com 1.10,2013-03-19 12:57:00,
2013-03-19 08:12:00,60.6,58.0,30.04,NE,56,6.0,8.0,91,0.00,,,0.00,weatherlink.com 1.10,2013-03-19 13:12:00,
2013-03-19 08:27:00,60.8,58.0,30.04,NE,35,4.0,10.0,90,0.00,,,0.00,weatherlink.com 1.10,2013-03-19 13:27:00,
2013-03-19 08:42:00,61.0,58.0,30.05,NNE,24,2.0,9.0,90,0.00,,,0.00,weatherlink.com 1.10,2013-03-19 13:42:00,
2013-03-19 08:57:00,61.8,59.0,30.05,NE,44,3.0,9.0,90,0.00,,,0.00,weatherlink.com 1.10,2013-03-19 13:57:00,
2013-03-19 09:12:00,63.3,59.0,30.04,ENE,75,6.0,10.0,85,0.00,,,0.00,weatherlink.com 1.10,2013-03-19 14:12:00,
2013-03-19 09:27:00,62.5,58.0,30.04,East,85,2.0,15.0,86,0.00,,,0.00,weatherlink.com 1.10,2013-03-19 14:27:00,
2013-03-19 09:42:00,63.1,58.0,30.04,NNW,335,3.0,9.0,83,0.00,,,0.00,weatherlink.com 1.10,2013-03-19 14:42:00,
2013-03-19 09:57:00,64.2,59.0,30.04,South,169,2.0,7.0,82,0.00,,,0.00,weatherlink.com 1.10,2013-03-19 14:57:00,
2013-03-19 10:12:00,64.5,59.0,30.04,North,9,5.0,8.0,81,0.00,,,0.00,weatherlink.com 1.10,2013-03-19 15:12:00,
2013-03-19 10:28:00,66.5,59.0,30.05,ENE,72,2.0,6.0,76,0.00,,,0.00,weatherlink.com 1.10,2013-03-19 15:28:00,
2013-03-19 10:43:00,67.5,58.0,30.05,NNE,23,1.0,7.0,72,0.00,,,0.00,weatherlink.com 1.10,2013-03-19 15:43:00,
2013-03-19 10:58:00,67.6,58.0,30.05,NNE,19,3.0,7.0,72,0.00,,,0.00,weatherlink.com 1.10,2013-03-19 15:58:00,
2013-03-19 11:13:00,68.4,58.0,30.05,ENE,57,6.0,9.0,70,0.00,,,0.00,weatherlink.com 1.10,2013-03-19 16:13:00,
2013-03-19 11:28:00,70.1,59.0,30.04,NW,322,2.0,5.0,67,0.00,,,0.00,weatherlink.com 1.10,2013-03-19 16:28:00,
2013-03-19 11:43:00,70.9,58.0,30.04,South,169,2.0,11.0,65,0.00,,,0.00,weatherlink.com 1.10,2013-03-19 16:43:00,
2013-03-19 11:58:00,71.5,59.0,30.04,West,280,1.0,7.0,66,0.00,,,0.00,weatherlink.com 1.10,2013-03-19 16:58:00,
2013-03-19 12:13:00,73.1,58.0,30.03,SE,129,3.0,6.0,60,0.00,,,0.00,weatherlink.com 1.10,2013-03-19 17:13:00,
2013-03-19 12:28:00,73.9,59.0,30.03,ESE,104,2.0,4.0,60,0.00,,,0.00,weatherlink.com 1.10,2013-03-19 17:28:00,
2013-03-19 12:43:00,73.8,59.0,30.02,North,10,5.0,9.0,61,0.00,,,0.00,weatherlink.com 1.10,2013-03-19 17:43:00,
2013-03-19 12:58:00,74.7,60.0,30.01,SSE,166,1.0,8.0,61,0.00,,,0.00,weatherlink.com 1.10,2013-03-19 17:58:00,
2013-03-19 13:13:00,75.3,58.0,30.01,NNE,29,3.0,5.0,56,0.00,,,0.00,weatherlink.com 1.10,2013-03-19 18:13:00,
2013-03-19 13:28:00,76.5,59.0,30.01,East,93,3.0,6.0,54,0.00,,,0.00,weatherlink.com 1.10,2013-03-19 18:28:00,
2013-03-19 13:43:00,76.3,61.0,30.00,ESE,117,2.0,5.0,60,0.00,,,0.00,weatherlink.com 1.10,2013-03-19 18:43:00,
2013-03-19 13:58:00,76.2,62.0,29.99,SW,219,3.0,7.0,61,0.00,,,0.00,weatherlink.com 1.10,2013-03-19 18:58:00,
2013-03-19 14:13:00,78.0,61.0,29.98,SE,133,5.0,7.0,56,0.00,,,0.00,weatherlink.com 1.10,2013-03-19 19:13:00,
2013-03-19 14:28:00,76.8,60.0,29.98,SSE,155,2.0,9.0,56,0.00,,,0.00,weatherlink.com 1.10,2013-03-19 19:28:00,
2013-03-19 14:43:00,77.9,60.0,29.98,SW,228,5.0,8.0,55,0.00,,,0.00,weatherlink.com 1.10,2013-03-19 19:43:00,
2013-03-19 14:58:00,76.7,59.0,29.98,South,183,1.0,10.0,55,0.00,,,0.00,weatherlink.com 1.10,2013-03-19 19:58:00,
2013-03-19 15:13:00,76.8,60.0,29.98,WSW,241,1.0,7.0,56,0.00,,,0.00,weatherlink.com 1.10,2013-03-19 20:13:00,
2013-03-19 15:28:00,76.5,60.0,29.97,South,177,3.0,9.0,57,0.00,,,0.00,weatherlink.com 1.10,2013-03-19 20:28:00,
2013-03-19 15:43:00,76.2,60.0,29.98,SSW,206,3.0,8.0,58,0.00,,,0.00,weatherlink.com 1.10,2013-03-19 20:43:00,
2013-03-19 15:58:00,76.7,60.0,29.97,SSW,200,1.0,6.0,56,0.00,,,0.00,weatherlink.com 1.10,2013-03-19 20:58:00,
2013-03-19 16:13:00,76.9,60.0,29.97,ESE,103,3.0,5.0,56,0.00,,,0.00,weatherlink.com 1.10,2013-03-19 21:13:00,
2013-03-19 16:28:00,77.3,60.0,29.96,WSW,238,3.0,6.0,56,0.00,,,0.00,weatherlink.com 1.10,2013-03-19 21:28:00,
2013-03-19 16:43:00,76.8,60.0,29.96,South,172,4.0,8.0,57,0.00,,,0.00,weatherlink.com 1.10,2013-03-19 21:43:00,
2013-03-19 16:58:00,75.8,60.0,29.96,SE,141,4.0,8.0,59,0.00,,,0.00,weatherlink.com 1.10,2013-03-19 21:58:00,
2013-03-19 17:13:00,75.1,60.0,29.95,SE,141,2.0,9.0,60,0.00,,,0.00,weatherlink.com 1.10,2013-03-19 22:13:00,
2013-03-19 17:28:00,74.5,60.0,29.95,SSE,161,2.0,8.0,61,0.00,,,0.00,weatherlink.com 1.10,2013-03-19 22:28:00,
2013-03-19 17:43:00,73.8,60.0,29.96,South,173,1.0,10.0,62,0.00,,,0.00,weatherlink.com 1.10,2013-03-19 22:43:00,
2013-03-19 17:58:00,73.6,60.0,29.96,SSW,201,4.0,6.0,63,0.00,,,0.00,weatherlink.com 1.10,2013-03-19 22:58:00,
2013-03-19 18:13:00,72.4,60.0,29.96,South,189,2.0,8.0,66,0.00,,,0.00,weatherlink.com 1.10,2013-03-19 23:13:00,
2013-03-19 18:28:00,71.9,61.0,29.96,South,191,2.0,3.0,68,0.00,,,0.00,weatherlink.com 1.10,2013-03-19 23:28:00,
2013-03-19 18:43:00,69.9,60.0,29.97,SSE,165,1.0,3.0,72,0.00,,,0.00,weatherlink.com 1.10,2013-03-19 23:43:00,
2013-03-19 18:58:00,68.4,61.0,29.97,SE,143,0.0,2.0,76,0.00,,,0.00,weatherlink.com 1.10,2013-03-19 23:58:00,
2013-03-19 19:13:00,67.0,60.0,29.97,SE,142,0.0,0.0,79,0.00,,,0.00,weatherlink.com 1.10,2013-03-20 00:13:00,
2013-03-19 19:28:00,65.8,60.0,29.97,SE,142,0.0,0.0,82,0.00,,,0.00,weatherlink.com 1.10,2013-03-20 00:28:00,
2013-03-19 19:43:00,64.4,60.0,29.98,SE,142,0.0,0.0,85,0.00,,,0.00,weatherlink.com 1.10,2013-03-20 00:43:00,
2013-03-19 19:58:00,63.2,59.0,30.00,SE,143,0.0,0.0,87,0.00,,,0.00,weatherlink.com 1.10,2013-03-20 00:58:00,
2013-03-19 20:13:00,62.2,59.0,29.98,SE,143,0.0,0.0,89,0.00,,,0.00,weatherlink.com 1.10,2013-03-20 01:13:00,
2013-03-19 20:28:00,62.2,60.0,30.00,SE,143,0.0,0.0,92,0.00,,,0.00,weatherlink.com 1.10,2013-03-20 01:28:00,
2013-03-19 20:43:00,62.1,60.0,30.00,SE,143,0.0,0.0,91,0.00,,,0.00,weatherlink.com 1.10,2013-03-20 01:43:00,
2013-03-19 20:58:00,61.8,60.0,30.00,SE,143,0.0,0.0,92,0.00,,,0.00,weatherlink.com 1.10,2013-03-20 01:58:00,
2013-03-19 21:13:00,62.0,60.0,30.00,ESE,121,0.0,1.0,93,0.00,,,0.00,weatherlink.com 1.10,2013-03-20 02:13:00,
2013-03-19 21:28:00,61.3,59.0,30.00,ESE,120,0.0,0.0,93,0.00,,,0.00,weatherlink.com 1.10,2013-03-20 02:28:00,
2013-03-19 21:43:00,61.1,60.0,30.01,ESE,120,0.0,0.0,95,0.00,,,0.00,weatherlink.com 1.10,2013-03-20 02:43:00,
2013-03-19 21:58:00,61.1,60.0,30.01,ESE,120,0.0,0.0,95,0.00,,,0.00,weatherlink.com 1.10,2013-03-20 02:58:00,
2013-03-19 22:13:00,60.8,59.0,30.02,ESE,115,0.0,0.0,95,0.00,,,0.00,weatherlink.com 1.10,2013-03-20 03:13:00,
2013-03-19 22:28:00,61.9,61.0,30.02,NNE,31,6.0,8.0,95,0.00,,,0.00,weatherlink.com 1.10,2013-03-20 03:28:00,
2013-03-19 22:43:00,64.0,58.0,30.02,NE,34,0.0,8.0,80,0.00,,,0.00,weatherlink.com 1.10,2013-03-20 03:43:00,
2013-03-19 22:59:00,62.8,54.0,30.02,East,79,0.0,4.0,74,0.00,,,0.00,weatherlink.com 1.10,2013-03-20 03:59:00,
2013-03-19 23:13:00,61.6,52.0,30.02,East,80,3.0,3.0,70,0.00,,,0.00,weatherlink.com 1.10,2013-03-20 04:13:00,
2013-03-19 23:28:00,61.9,49.0,30.02,ENE,63,1.0,5.0,64,0.00,,,0.00,weatherlink.com 1.10,2013-03-20 04:28:00,
2013-03-19 23:44:00,62.1,48.0,30.02,East,98,1.0,4.0,60,0.00,,,0.00,weatherlink.com 1.10,2013-03-20 04:44:00,
2013-03-19 23:59:00,62.5,46.0,30.02,SE,131,0.0,4.0,56,0.00,,,0.00,weatherlink.com 1.10,2013-03-20 04:59:00,